createdAt,value
2023-04-28T00:01:28.448Z,100156.88
2023-04-28T00:03:58.099Z,100155.66
2023-04-28T00:06:26.945Z,100159.94
2023-04-28T00:08:55.408Z,100153.84
2023-04-28T00:11:23.828Z,100152.81
2023-04-28T00:13:53.564Z,100155.88
2023-04-28T00:16:22.034Z,100142.81
2023-04-28T00:18:51.128Z,100128.75
2023-04-28T00:21:19.497Z,100126.91
2023-04-28T00:23:47.859Z,100131.38
2023-04-28T00:26:16.165Z,100121.00
2023-04-28T00:28:45.161Z,100112.84
2023-04-28T00:31:16.662Z,100114.28
2023-04-28T00:33:46.220Z,100111.81
2023-04-28T00:36:14.636Z,100108.16
2023-04-28T00:38:43.075Z,100103.88
2023-04-28T00:41:11.782Z,100108.16
2023-04-28T00:43:48.254Z,100098.34
2023-04-28T00:46:24.142Z,100091.22
2023-04-28T00:48:53.246Z,100085.34
2023-04-28T00:51:21.778Z,100084.09
2023-04-28T00:53:50.188Z,100080.84
2023-04-28T00:56:18.949Z,100074.72
2023-04-28T00:58:47.317Z,100079.81
2023-04-28T01:01:17.205Z,100081.22
2023-04-28T01:03:46.284Z,100071.63
2023-04-28T01:06:16.050Z,100068.22
2023-04-28T01:08:44.985Z,100073.50
2023-04-28T01:11:17.298Z,100069.25
2023-04-28T01:14:20.961Z,100064.59
2023-04-28T01:16:50.942Z,100057.44
2023-04-28T01:19:23.410Z,100041.78
2023-04-28T01:21:53.408Z,100045.63
2023-04-28T01:24:24.453Z,100049.31
2023-04-28T01:26:52.877Z,100042.38
2023-04-28T01:29:21.286Z,100046.06
2023-04-28T01:31:49.817Z,100045.84
2023-04-28T01:34:19.006Z,100037.31
2023-04-28T01:36:47.380Z,100036.91
2023-04-28T01:39:16.720Z,100036.31
2023-04-28T01:41:46.518Z,100029.59
2023-04-28T01:44:15.304Z,100020.59
2023-04-28T01:46:43.896Z,100022.03
2023-04-28T01:49:12.302Z,100021.59
2023-04-28T01:51:43.014Z,100024.47
2023-04-28T01:54:11.842Z,100010.84
2023-04-28T01:56:41.304Z,100009.63
2023-04-28T01:59:11.173Z,100002.09
2023-04-28T02:01:39.755Z,100005.13
2023-04-28T02:04:08.365Z,100001.06
2023-04-28T02:06:38.683Z,100002.91
2023-04-28T02:09:07.256Z,100010.41
2023-04-28T02:11:35.667Z,100011.03
2023-04-28T02:14:04.066Z,100017.34
2023-04-28T02:16:34.757Z,100018.97
2023-04-28T02:19:03.285Z,100025.28
2023-04-28T02:21:31.946Z,100030.38
2023-04-28T02:24:00.756Z,100019.16
2023-04-28T02:26:29.233Z,100021.00
2023-04-28T02:28:57.601Z,100031.19
2023-04-28T02:31:26.149Z,100029.53
2023-04-28T02:33:57.140Z,100024.06
2023-04-28T02:36:25.940Z,100023.84
2023-04-28T02:38:54.326Z,100029.75
2023-04-28T02:41:23.145Z,100029.75
2023-04-28T02:43:51.648Z,100014.88
2023-04-28T02:46:20.233Z,99999.81
2023-04-28T02:48:48.719Z,100002.06
2023-04-28T02:51:18.480Z,99988.81
2023-04-28T02:53:47.126Z,99994.53
2023-04-28T02:56:15.597Z,99986.94
2023-04-28T02:58:44.095Z,99989.78
2023-04-28T03:01:12.472Z,99988.16
2023-04-28T03:03:41.182Z,99977.13
2023-04-28T03:06:09.710Z,99978.78
2023-04-28T03:08:39.590Z,99978.38
2023-04-28T03:11:08.129Z,99967.38
2023-04-28T03:13:36.651Z,99977.31
2023-04-28T03:16:07.944Z,99965.69
2023-04-28T03:18:36.681Z,99972.41
2023-04-28T03:21:06.152Z,99971.81
2023-04-28T03:23:34.660Z,99965.72
2023-04-28T03:26:05.813Z,99965.91
2023-04-28T03:28:34.472Z,99970.13
2023-04-28T03:31:03.551Z,99968.72
2023-04-28T03:33:32.455Z,99960.16
2023-04-28T03:36:01.916Z,99966.88
2023-04-28T03:38:30.737Z,99950.03
2023-04-28T03:40:59.130Z,99952.88
2023-04-28T03:43:41.117Z,99952.47
2023-04-28T03:46:16.242Z,99949.25
2023-04-28T03:48:46.196Z,99930.09
2023-04-28T03:51:15.111Z,99936.81
2023-04-28T03:53:43.663Z,99938.66
2023-04-28T03:56:12.206Z,99939.88
2023-04-28T03:58:42.512Z,99943.72
2023-04-28T04:01:10.918Z,99930.75
2023-04-28T04:03:39.815Z,99932.97
2023-04-28T04:06:08.877Z,99936.22
2023-04-28T04:08:37.768Z,99935.78
2023-04-28T04:11:06.383Z,99925.19
2023-04-28T04:13:34.743Z,99927.22
2023-04-28T04:16:09.196Z,99914.63
2023-04-28T04:18:37.763Z,99923.75
2023-04-28T04:21:32.967Z,99918.25
2023-04-28T04:24:01.566Z,99910.91
2023-04-28T04:26:30.236Z,99901.13
2023-04-28T04:28:59.003Z,99908.66
2023-04-28T04:31:28.856Z,99898.94
2023-04-28T04:33:58.507Z,99902.97
2023-04-28T04:36:27.515Z,99901.53
2023-04-28T04:38:55.992Z,99903.78
2023-04-28T04:41:24.771Z,99886.06
2023-04-28T04:44:02.534Z,99891.16
2023-04-28T04:46:39.719Z,99908.44
2023-04-28T04:49:08.286Z,99913.72
2023-04-28T04:51:38.075Z,99917.78
2023-04-28T04:54:08.915Z,99921.47
2023-04-28T04:56:39.209Z,99917.97
2023-04-28T04:59:08.052Z,99918.59
2023-04-28T05:01:46.559Z,99933.69
2023-04-28T05:04:15.121Z,99936.13
2023-04-28T05:06:43.913Z,99937.16
2023-04-28T05:09:12.879Z,99939.38
2023-04-28T05:11:42.074Z,99949.28
2023-04-28T05:14:10.578Z,99929.53
2023-04-28T05:16:40.780Z,99938.09
2023-04-28T05:19:18.284Z,99927.69
2023-04-28T05:21:48.066Z,99939.69
2023-04-28T05:24:16.960Z,99931.53
2023-04-28T05:26:45.614Z,99926.72
2023-04-28T05:29:14.224Z,99931.13
2023-04-28T05:31:42.804Z,99926.19
2023-04-28T05:34:11.373Z,99927.03
2023-04-28T05:36:41.812Z,99918.31
2023-04-28T05:39:12.491Z,99912.53
2023-04-28T05:41:42.306Z,99921.38
2023-04-28T05:44:11.180Z,99919.81
2023-04-28T05:46:39.727Z,99926.66
2023-04-28T05:49:08.279Z,99937.41
2023-04-28T05:51:40.493Z,99936.19
2023-04-28T05:54:08.994Z,99937.06
2023-04-28T05:56:43.278Z,99945.09
2023-04-28T05:59:12.001Z,99948.78
2023-04-28T06:01:40.561Z,99959.19
2023-04-28T06:04:09.363Z,99945.94
2023-04-28T06:06:38.216Z,99942.81
2023-04-28T06:09:08.280Z,99954.72
2023-04-28T06:11:36.803Z,99958.09
2023-04-28T06:14:05.227Z,99961.28
2023-04-28T06:16:33.681Z,99964.13
2023-04-28T06:19:02.381Z,99957.81
2023-04-28T06:21:32.378Z,99964.97
2023-04-28T06:24:01.984Z,99962.09
2023-04-28T06:26:32.082Z,99956.78
2023-04-28T06:29:00.637Z,99957.03
2023-04-28T06:31:31.319Z,99955.56
2023-04-28T06:33:59.689Z,99956.97
2023-04-28T06:36:28.340Z,99956.97
2023-04-28T06:38:56.936Z,99971.41
2023-04-28T06:41:25.310Z,99969.97
2023-04-28T06:43:56.318Z,99969.38
2023-04-28T06:46:31.927Z,99963.25
2023-04-28T06:49:00.338Z,99960.09
2023-04-28T06:51:29.153Z,99970.78
2023-04-28T06:53:57.566Z,99966.75
2023-04-28T06:56:25.989Z,99961.88
2023-04-28T06:58:57.016Z,99968.75
2023-04-28T07:01:25.491Z,99969.72
2023-04-28T07:03:53.987Z,99962.44
2023-04-28T07:06:22.451Z,99950.91
2023-04-28T07:08:50.932Z,99945.59
2023-04-28T07:11:19.332Z,99952.84
2023-04-28T07:13:49.506Z,99948.13
2023-04-28T07:16:19.511Z,99937.72
2023-04-28T07:18:47.851Z,99920.16
2023-04-28T07:21:16.288Z,99923.78
2023-04-28T07:23:45.940Z,99936.56
2023-04-28T07:26:16.380Z,99942.59
2023-04-28T07:28:45.938Z,99918.91
2023-04-28T07:31:14.432Z,99907.16
2023-04-28T07:33:44.228Z,99909.53
2023-04-28T07:36:12.760Z,99930.06
2023-04-28T07:38:41.136Z,99922.69
2023-04-28T07:41:11.165Z,99921.66
2023-04-28T07:43:40.550Z,99913.97
2023-04-28T07:46:09.962Z,99916.66
2023-04-28T07:48:38.885Z,99908.91
2023-04-28T07:51:08.661Z,99911.72
2023-04-28T07:53:37.832Z,99910.81
2023-04-28T07:56:06.802Z,99889.47
2023-04-28T07:58:35.240Z,99904.19
2023-04-28T08:01:03.666Z,99905.44
2023-04-28T08:03:32.322Z,99901.81
2023-04-28T08:06:01.871Z,99911.31
2023-04-28T08:08:32.384Z,99906.47
2023-04-28T08:11:00.750Z,99909.91
2023-04-28T08:13:29.533Z,99920.28
2023-04-28T08:15:58.139Z,99909.88
2023-04-28T08:18:27.097Z,99917.91
2023-04-28T08:20:55.871Z,99932.06
2023-04-28T08:23:28.209Z,99930.75
2023-04-28T08:25:58.019Z,99936.81
2023-04-28T08:28:26.438Z,99936.19
2023-04-28T08:30:55.618Z,99931.91
2023-04-28T08:33:24.394Z,99930.44
2023-04-28T08:35:52.859Z,99932.06
2023-04-28T08:38:24.104Z,99946.72
2023-04-28T08:40:52.705Z,99953.44
2023-04-28T08:43:22.516Z,99945.06
2023-04-28T08:45:51.160Z,99947.72
2023-04-28T08:48:22.206Z,99946.97
2023-04-28T08:50:53.461Z,99944.72
2023-04-28T08:53:26.558Z,99942.53
2023-04-28T08:55:58.156Z,99939.50
2023-04-28T08:58:28.873Z,99940.56
2023-04-28T09:00:57.295Z,99945.63
2023-04-28T09:03:25.716Z,99941.75
2023-04-28T09:05:54.270Z,99942.84
2023-04-28T09:08:22.670Z,99952.44
2023-04-28T09:11:09.331Z,99949.66
2023-04-28T09:13:40.058Z,99946.66
2023-04-28T09:16:09.113Z,99940.41
2023-04-28T09:18:37.693Z,99941.63
2023-04-28T09:21:08.471Z,99940.19
2023-04-28T09:23:48.541Z,99935.13
2023-04-28T09:26:16.934Z,99939.59
2023-04-28T09:28:46.769Z,99935.13
2023-04-28T09:31:25.583Z,99937.78
2023-04-28T09:34:00.683Z,99947.13
2023-04-28T09:36:30.806Z,99945.09
2023-04-28T09:39:00.353Z,99937.75
2023-04-28T09:41:39.755Z,99938.78
2023-04-28T09:44:19.215Z,99936.34
2023-04-28T09:46:49.000Z,99935.47
2023-04-28T09:49:17.387Z,99939.13
2023-04-28T09:51:46.184Z,99944.47
2023-04-28T09:54:15.227Z,99947.50
2023-04-28T09:56:48.616Z,99946.91
2023-04-28T09:59:18.588Z,99949.34
2023-04-28T10:01:47.503Z,99942.59
2023-04-28T10:04:16.918Z,99937.56
2023-04-28T10:06:46.073Z,99936.69
2023-04-28T10:09:14.948Z,99937.81
2023-04-28T10:11:43.498Z,99939.31
2023-04-28T10:14:12.537Z,99940.31
2023-04-28T10:16:43.410Z,99949.47
2023-04-28T10:19:12.621Z,99932.09
2023-04-28T10:21:53.767Z,99921.25
2023-04-28T10:24:29.462Z,99924.50
2023-04-28T10:27:09.334Z,99920.78
2023-04-28T10:29:38.280Z,99916.22
2023-04-28T10:32:26.355Z,99915.03
2023-04-28T10:34:55.222Z,99920.22
2023-04-28T10:38:05.187Z,99920.78
2023-04-28T10:40:34.615Z,99915.94
2023-04-28T10:43:04.180Z,99922.72
2023-04-28T10:46:06.138Z,99920.03
2023-04-28T10:49:00.538Z,99914.53
2023-04-28T10:51:36.210Z,99921.00
2023-04-28T10:54:28.228Z,99912.09
2023-04-28T10:57:22.941Z,99905.72
2023-04-28T10:59:52.369Z,99896.66
2023-04-28T11:02:44.418Z,99889.78
2023-04-28T11:05:20.878Z,99893.44
2023-04-28T11:08:37.917Z,99893.75
2023-04-28T11:11:25.030Z,99888.69
2023-04-28T11:13:54.969Z,99880.31
2023-04-28T11:16:27.648Z,99893.72
2023-04-28T11:19:05.731Z,99891.78
2023-04-28T11:21:35.635Z,99887.47
2023-04-28T11:24:12.697Z,99890.81
2023-04-28T11:26:41.472Z,99890.50
2023-04-28T11:29:10.692Z,99886.31
2023-04-28T11:31:39.832Z,99885.63
2023-04-28T11:34:14.399Z,99890.06
2023-04-28T11:36:44.299Z,99887.16
2023-04-28T11:39:15.407Z,99882.63
2023-04-28T11:41:45.466Z,99871.97
2023-04-28T11:44:16.000Z,99883.66
2023-04-28T11:46:51.038Z,99884.47
2023-04-28T11:49:20.715Z,99860.25
2023-04-28T11:51:50.573Z,99866.66
2023-04-28T11:54:24.609Z,99864.09
2023-04-28T11:56:54.111Z,99855.28
2023-04-28T11:59:27.467Z,99864.66
2023-04-28T12:01:59.457Z,99851.34
2023-04-28T12:04:31.906Z,99857.34
2023-04-28T12:07:07.894Z,99857.28
2023-04-28T12:09:36.827Z,99855.53
2023-04-28T12:12:07.393Z,99859.84
2023-04-28T12:14:56.397Z,99869.53
2023-04-28T12:17:26.745Z,99850.63
2023-04-28T12:19:55.417Z,99855.88
2023-04-28T12:22:26.061Z,99850.28
2023-04-28T12:25:08.484Z,99852.69
2023-04-28T12:27:39.250Z,99861.75
2023-04-28T12:30:26.030Z,99853.31
2023-04-28T12:32:56.202Z,99853.13
2023-04-28T12:35:25.874Z,99862.31
2023-04-28T12:37:56.960Z,99859.53
2023-04-28T12:40:26.202Z,99845.59
2023-04-28T12:42:54.834Z,99848.59
2023-04-28T12:45:23.359Z,99851.03
2023-04-28T12:47:52.426Z,99845.28
2023-04-28T12:50:21.514Z,99840.34
2023-04-28T12:52:49.994Z,99822.06
2023-04-28T12:55:20.068Z,99819.97
2023-04-28T12:57:48.528Z,99815.50
2023-04-28T13:00:18.071Z,99826.69
2023-04-28T13:02:46.642Z,99851.94
2023-04-28T13:05:15.514Z,99844.47
2023-04-28T13:07:45.249Z,99844.78
2023-04-28T13:10:13.899Z,99836.31
2023-04-28T13:12:43.679Z,99829.31
2023-04-28T13:15:13.125Z,99845.69
2023-04-28T13:17:41.550Z,99839.22
2023-04-28T13:20:11.671Z,99837.16
2023-04-28T13:22:40.415Z,99827.44
2023-04-28T13:25:10.297Z,99817.06
2023-04-28T13:27:40.115Z,99830.31
2023-04-28T13:30:13.386Z,99799.44
2023-04-28T13:32:41.777Z,99797.84
2023-04-28T13:35:10.664Z,99793.81
2023-04-28T13:37:42.655Z,99807.56
2023-04-28T13:40:12.612Z,99789.25
2023-04-28T13:42:41.100Z,99803.78
2023-04-28T13:45:12.099Z,99814.03
2023-04-28T13:47:40.650Z,99803.34
2023-04-28T13:50:09.957Z,99782.34
2023-04-28T13:52:38.386Z,99803.22
2023-04-28T13:55:07.375Z,99801.59
2023-04-28T13:57:35.860Z,99797.63
2023-04-28T14:00:05.089Z,99757.59
2023-04-28T14:02:37.540Z,99792.84
2023-04-28T14:05:07.300Z,99785.91
2023-04-28T14:07:35.905Z,99779.50
2023-04-28T14:10:06.142Z,99793.50
2023-04-28T14:12:34.595Z,99787.09
2023-04-28T14:15:02.981Z,99775.28
2023-04-28T14:17:34.790Z,99765.09
2023-04-28T14:20:05.905Z,99788.25
2023-04-28T14:22:34.237Z,99788.00
2023-04-28T14:25:02.682Z,99787.16
2023-04-28T14:27:31.188Z,99785.88
2023-04-28T14:29:59.584Z,99801.88
2023-04-28T14:32:27.991Z,99798.00
2023-04-28T14:34:56.407Z,99792.16
2023-04-28T14:37:26.864Z,99783.53
2023-04-28T14:39:55.286Z,99782.97
2023-04-28T14:42:24.324Z,99792.34
2023-04-28T14:44:54.464Z,99795.09
2023-04-28T14:47:23.129Z,99782.72
2023-04-28T14:49:53.436Z,99768.56
2023-04-28T14:52:22.444Z,99770.19
2023-04-28T14:54:52.299Z,99767.78
2023-04-28T14:57:21.289Z,99775.88
2023-04-28T14:59:51.806Z,99777.91
2023-04-28T15:02:21.757Z,99756.63
2023-04-28T15:04:50.524Z,99777.25
2023-04-28T15:07:19.454Z,99787.22
2023-04-28T15:09:47.903Z,99792.38
2023-04-28T15:12:17.723Z,99783.06
2023-04-28T15:14:46.258Z,99781.28
2023-04-28T15:17:14.690Z,99772.53
2023-04-28T15:19:43.069Z,99775.38
2023-04-28T15:22:11.453Z,99773.59
2023-04-28T15:24:39.803Z,99769.56
2023-04-28T15:27:08.611Z,99769.03
2023-04-28T15:29:38.733Z,99765.09
2023-04-28T15:32:07.906Z,99769.56
2023-04-28T15:34:36.655Z,99760.00
2023-04-28T15:37:40.398Z,99758.25
2023-04-28T15:40:11.783Z,99758.56
2023-04-28T15:42:42.229Z,99755.47
2023-04-28T15:45:13.378Z,99761.03
2023-04-28T15:47:42.676Z,99752.09
2023-04-28T15:50:12.289Z,99765.00
2023-04-28T15:52:45.992Z,99746.91
2023-04-28T15:55:15.284Z,99756.59
2023-04-28T15:57:44.567Z,99759.81
2023-04-28T16:00:16.529Z,99745.69
2023-04-28T16:02:46.181Z,99746.56
2023-04-28T16:05:14.868Z,99741.25
2023-04-28T16:07:44.485Z,99745.63
2023-04-28T16:10:15.349Z,99748.50
2023-04-28T16:12:44.515Z,99758.94
2023-04-28T16:15:14.916Z,99742.44
2023-04-28T16:17:44.356Z,99757.22
2023-04-28T16:20:13.241Z,99757.72
2023-04-28T16:22:42.697Z,99758.03
2023-04-28T16:25:12.087Z,99755.94
2023-04-28T16:27:41.841Z,99726.94
2023-04-28T16:30:11.393Z,99739.38
2023-04-28T16:32:41.357Z,99757.72
2023-04-28T16:35:15.127Z,99750.28
2023-04-28T16:37:44.512Z,99734.38
2023-04-28T16:40:14.367Z,99720.78
2023-04-28T16:42:43.553Z,99702.13
2023-04-28T16:45:15.921Z,99705.50
2023-04-28T16:47:46.847Z,99712.38
2023-04-28T16:50:15.713Z,99725.72
2023-04-28T16:52:44.107Z,99718.28
2023-04-28T16:55:12.593Z,99711.75
2023-04-28T16:57:41.394Z,99698.31
2023-04-28T17:00:12.150Z,99722.66
2023-04-28T17:02:40.776Z,99719.59
2023-04-28T17:05:11.594Z,99703.09
2023-04-28T17:07:40.100Z,99689.44
2023-04-28T17:10:09.929Z,99691.75
2023-04-28T17:12:39.464Z,99697.44
2023-04-28T17:15:09.630Z,99699.44
2023-04-28T17:17:38.101Z,99675.44
2023-04-28T17:20:07.928Z,99702.94
2023-04-28T17:22:37.794Z,99695.81
2023-04-28T17:25:07.655Z,99712.38
2023-04-28T17:27:36.353Z,99706.47
2023-04-28T17:30:06.307Z,99718.03
2023-04-28T17:32:36.625Z,99725.47
2023-04-28T17:35:05.578Z,99719.50
2023-04-28T17:37:35.388Z,99718.53
2023-04-28T17:40:05.746Z,99705.44
2023-04-28T17:42:34.115Z,99689.50
2023-04-28T17:45:02.457Z,99700.19
2023-04-28T17:47:30.897Z,99700.09
2023-04-28T17:49:59.420Z,99713.50
2023-04-28T17:52:27.807Z,99715.28
2023-04-28T17:54:57.407Z,99716.22
2023-04-28T17:57:27.261Z,99721.00
2023-04-28T17:59:55.644Z,99718.72
2023-04-28T18:02:24.133Z,99715.72
2023-04-28T18:04:52.746Z,99715.16
2023-04-28T18:07:21.357Z,99725.81
2023-04-28T18:09:49.898Z,99727.44
2023-04-28T18:12:18.610Z,99733.56
2023-04-28T18:14:50.481Z,99736.16
2023-04-28T18:17:19.129Z,99729.53
2023-04-28T18:19:51.353Z,99711.38
2023-04-28T18:22:19.777Z,99734.78
2023-04-28T18:24:48.609Z,99718.69
2023-04-28T18:27:17.076Z,99750.88
2023-04-28T18:29:47.070Z,99753.44
2023-04-28T18:32:15.399Z,99752.88
2023-04-28T18:34:44.582Z,99749.28
2023-04-28T18:37:12.938Z,99736.81
2023-04-28T18:39:41.326Z,99748.88
2023-04-28T18:42:10.891Z,99753.72
2023-04-28T18:44:39.342Z,99751.78
2023-04-28T18:47:09.044Z,99760.97
2023-04-28T18:49:38.146Z,99751.56
2023-04-28T18:52:06.583Z,99756.78
2023-04-28T18:54:35.763Z,99757.75
2023-04-28T18:57:05.076Z,99764.09
2023-04-28T18:59:33.761Z,99766.19
2023-04-28T19:02:04.269Z,99769.06
2023-04-28T19:04:34.367Z,99782.16
2023-04-28T19:07:02.922Z,99788.88
2023-04-28T19:09:31.291Z,99792.81
2023-04-28T19:11:59.639Z,99793.84
2023-04-28T19:14:28.032Z,99794.31
2023-04-28T19:16:56.538Z,99802.31
2023-04-28T19:19:25.009Z,99812.94
2023-04-28T19:21:54.925Z,99812.00
2023-04-28T19:24:23.545Z,99823.47
2023-04-28T19:26:51.922Z,99827.84
2023-04-28T19:29:20.477Z,99830.06
2023-04-28T19:31:49.770Z,99831.44
2023-04-28T19:34:18.307Z,99835.25
2023-04-28T19:36:46.670Z,99838.84
2023-04-28T19:39:16.466Z,99836.19
2023-04-28T19:41:44.871Z,99836.88
2023-04-28T19:44:13.237Z,99845.31
2023-04-28T19:46:42.568Z,99854.69
2023-04-28T19:49:12.548Z,99857.44
2023-04-28T19:51:40.957Z,99851.38
2023-04-28T19:54:09.402Z,99866.19
2023-04-28T19:56:39.173Z,99873.22
2023-04-28T19:59:07.555Z,99878.84
2023-04-28T20:01:36.018Z,99870.84
2023-04-28T20:04:04.647Z,99878.25
2023-04-28T20:06:33.346Z,99886.22
2023-04-28T20:09:02.513Z,99888.91
2023-04-28T20:11:31.304Z,99897.78
2023-04-28T20:14:01.057Z,99892.56
2023-04-28T20:16:29.717Z,99895.97
2023-04-28T20:18:58.165Z,99904.75
2023-04-28T20:21:28.214Z,99902.69
2023-04-28T20:23:56.625Z,99897.44
2023-04-28T20:26:25.046Z,99901.00
2023-04-28T20:28:54.283Z,99902.91
2023-04-28T20:31:24.125Z,99906.31
2023-04-28T20:33:52.886Z,99897.53
2023-04-28T20:36:21.378Z,99893.97
2023-04-28T20:38:49.883Z,99902.25
2023-04-28T20:41:18.388Z,99910.66
2023-04-28T20:43:46.988Z,99914.38
2023-04-28T20:46:15.873Z,99903.94
2023-04-28T20:48:45.777Z,99904.09
2023-04-28T20:51:14.153Z,99895.84
2023-04-28T20:53:42.973Z,99903.00
2023-04-28T20:56:11.432Z,99896.28
2023-04-28T20:58:42.444Z,99903.59
2023-04-28T21:01:10.915Z,99909.56
2023-04-28T21:03:39.602Z,99909.94
2023-04-28T21:06:09.566Z,99908.56
2023-04-28T21:08:38.627Z,99911.66
2023-04-28T21:11:13.644Z,99911.78
2023-04-28T21:13:42.874Z,99905.91
2023-04-28T21:16:19.417Z,99904.50
2023-04-28T21:18:49.811Z,99905.59
2023-04-28T21:21:19.837Z,99904.50
2023-04-28T21:23:48.606Z,99915.75
2023-04-28T21:26:17.231Z,99909.81
2023-04-28T21:28:45.769Z,99908.81
2023-04-28T21:31:14.207Z,99904.59
2023-04-28T21:33:42.544Z,99908.31
2023-04-28T21:36:10.878Z,99912.41
2023-04-28T21:38:40.607Z,99919.13
2023-04-28T21:41:08.959Z,99924.00
2023-04-28T21:43:37.410Z,99926.94
2023-04-28T21:46:06.039Z,99922.88
2023-04-28T21:48:34.417Z,99930.69
2023-04-28T21:51:02.796Z,99927.56
2023-04-28T21:53:31.419Z,99918.00
2023-04-28T21:56:01.215Z,99920.38
2023-04-28T21:58:29.546Z,99927.56
2023-04-28T22:00:57.990Z,99917.34
2023-04-28T22:03:27.229Z,99918.59
2023-04-28T22:05:56.720Z,99925.09
2023-04-28T22:08:25.722Z,99918.59
2023-04-28T22:10:54.101Z,99929.44
2023-04-28T22:13:23.754Z,99930.22
2023-04-28T22:15:52.209Z,99926.19
2023-04-28T22:18:20.660Z,99930.94
2023-04-28T22:20:50.131Z,99928.13
2023-04-28T22:23:18.477Z,99930.03
2023-04-28T22:25:47.066Z,99933.13
2023-04-28T22:28:15.437Z,99928.66
2023-04-28T22:30:47.021Z,99932.78
2023-04-28T22:33:15.504Z,99936.31
2023-04-28T22:35:46.433Z,99933.25
2023-04-28T22:38:14.774Z,99932.88
2023-04-28T22:40:43.392Z,99938.38
2023-04-28T22:43:11.838Z,99937.38
2023-04-28T22:45:42.045Z,99935.72
2023-04-28T22:48:12.136Z,99945.34
2023-04-28T22:50:40.659Z,99942.56
2023-04-28T22:53:09.430Z,99944.38
2023-04-28T22:55:37.998Z,99943.59
2023-04-28T22:58:07.110Z,99945.63
2023-04-28T23:00:35.802Z,99940.59
2023-04-28T23:03:05.088Z,99937.94
2023-04-28T23:05:38.943Z,99947.53
2023-04-28T23:08:07.376Z,99943.66
2023-04-28T23:10:35.765Z,99946.75
2023-04-28T23:13:04.125Z,99937.53
2023-04-28T23:15:32.512Z,99937.53
2023-04-28T23:18:00.931Z,99936.13
2023-04-28T23:20:29.374Z,99947.78
2023-04-28T23:22:59.479Z,99940.03
2023-04-28T23:25:27.866Z,99942.88
2023-04-28T23:27:56.291Z,99953.31
2023-04-28T23:30:24.691Z,99942.69
2023-04-28T23:32:53.193Z,99946.75
2023-04-28T23:35:21.571Z,99941.47
2023-04-28T23:37:50.286Z,99934.09
2023-04-28T23:40:20.287Z,99940.03
2023-04-28T23:42:48.627Z,99931.44
2023-04-28T23:45:17.256Z,99941.47
2023-04-28T23:47:45.698Z,99940.00
2023-04-28T23:50:14.125Z,99940.59
2023-04-28T23:52:43.932Z,99933.81
2023-04-28T23:55:15.400Z,99932.63
2023-04-28T23:57:45.189Z,99928.56
